createdAt,value
2018-09-30T00:02:30.797Z,1.40
2018-09-30T00:05:00.801Z,4.20
2018-09-30T00:07:30.385Z,4.40
2018-09-30T00:10:01.939Z,4.10
2018-09-30T00:12:33.493Z,3.42
2018-09-30T00:15:04.029Z,2.50
2018-09-30T00:17:33.521Z,3.10
2018-09-30T00:20:04.098Z,4.97
2018-09-30T00:25:41.873Z,8.60
2018-09-30T00:28:14.880Z,4.50
2018-09-30T00:30:44.757Z,2.02
2018-09-30T00:33:15.600Z,3.72
2018-09-30T00:35:50.908Z,3.67
2018-09-30T00:38:20.661Z,4.05
2018-09-30T00:40:52.315Z,1.75
2018-09-30T00:43:22.129Z,5.62
2018-09-30T00:45:52.977Z,5.47
2018-09-30T00:48:22.568Z,12.35
2018-09-30T00:50:52.084Z,4.10
2018-09-30T00:53:21.681Z,10.08
2018-09-30T00:55:53.712Z,9.88
2018-09-30T00:58:23.468Z,5.80
2018-09-30T01:00:58.252Z,4.78
2018-09-30T01:03:30.021Z,5.72
2018-09-30T01:06:00.684Z,4.97
2018-09-30T01:08:33.876Z,3.17
2018-09-30T01:11:05.043Z,3.45
2018-09-30T01:13:34.604Z,4.95
2018-09-30T01:16:06.929Z,8.33
2018-09-30T01:18:37.516Z,3.70
2018-09-30T01:21:08.984Z,4.45
2018-09-30T01:23:39.805Z,6.47
2018-09-30T01:26:12.084Z,5.72
2018-09-30T01:28:41.661Z,11.05
2018-09-30T01:31:13.220Z,5.78
2018-09-30T01:33:43.065Z,4.50
2018-09-30T01:36:12.940Z,7.37
2018-09-30T01:38:43.765Z,3.75
2018-09-30T01:41:19.115Z,5.17
2018-09-30T01:43:53.737Z,8.93
2018-09-30T01:46:23.568Z,5.08
2018-09-30T01:48:57.380Z,5.72
2018-09-30T01:51:27.448Z,4.83
2018-09-30T01:53:59.064Z,3.22
2018-09-30T01:56:28.869Z,5.22
2018-09-30T01:58:58.583Z,2.55
2018-09-30T02:01:28.198Z,3.72
2018-09-30T02:03:57.992Z,6.87
2018-09-30T02:06:27.581Z,2.98
2018-09-30T02:08:58.080Z,8.10
2018-09-30T02:11:32.100Z,5.42
2018-09-30T02:14:01.738Z,3.55
2018-09-30T02:16:31.208Z,6.45
2018-09-30T02:19:05.913Z,10.30
2018-09-30T02:21:37.154Z,9.70
2018-09-30T02:24:08.025Z,6.37
2018-09-30T02:26:38.192Z,2.98
2018-09-30T02:29:10.029Z,4.95
2018-09-30T02:31:39.649Z,5.00
2018-09-30T02:34:09.433Z,4.40
2018-09-30T02:36:39.386Z,3.72
2018-09-30T02:39:09.025Z,5.85
2018-09-30T02:41:42.805Z,4.05
2018-09-30T02:44:12.441Z,1.30
2018-09-30T02:46:43.045Z,7.45
2018-09-30T02:49:16.310Z,4.60
2018-09-30T02:51:52.101Z,1.82
2018-09-30T02:54:35.800Z,2.60
2018-09-30T02:57:05.421Z,4.03
2018-09-30T02:59:35.203Z,4.20
2018-09-30T03:02:06.225Z,2.37
2018-09-30T03:04:37.069Z,1.50
2018-09-30T03:07:12.300Z,12.63
2018-09-30T03:09:43.636Z,1.50
2018-09-30T03:12:15.589Z,6.10
2018-09-30T03:14:45.456Z,1.90
2018-09-30T03:17:16.100Z,4.55
2018-09-30T03:19:45.697Z,1.45
2018-09-30T03:22:15.337Z,11.57
2018-09-30T03:24:45.125Z,4.62
2018-09-30T03:27:16.751Z,5.45
2018-09-30T03:29:46.592Z,2.27
2018-09-30T03:32:19.188Z,2.55
2018-09-30T03:34:50.913Z,1.82
2018-09-30T03:37:22.772Z,1.40
2018-09-30T03:39:52.657Z,3.77
2018-09-30T03:42:23.548Z,3.25
2018-09-30T03:44:53.424Z,2.15
2018-09-30T03:47:24.074Z,2.22
2018-09-30T03:49:57.020Z,2.15
2018-09-30T03:52:27.616Z,2.12
2018-09-30T03:54:57.379Z,1.70
2018-09-30T03:57:28.280Z,4.50
2018-09-30T03:59:57.992Z,1.40
2018-09-30T04:02:29.027Z,2.72
2018-09-30T04:04:58.823Z,1.55
2018-09-30T04:07:29.782Z,1.50
2018-09-30T04:10:00.836Z,1.35
2018-09-30T04:12:30.359Z,3.30
2018-09-30T04:15:03.172Z,1.65
2018-09-30T04:17:33.754Z,4.62
2018-09-30T04:20:03.193Z,1.90
2018-09-30T04:22:33.689Z,3.77
2018-09-30T04:25:04.609Z,1.47
2018-09-30T04:27:40.188Z,4.20
2018-09-30T04:30:11.024Z,11.35
2018-09-30T04:32:41.672Z,2.25
2018-09-30T04:35:15.890Z,3.15
2018-09-30T04:37:50.188Z,7.17
2018-09-30T04:40:22.025Z,2.22
2018-09-30T04:42:52.132Z,1.45
2018-09-30T04:45:25.276Z,3.98
2018-09-30T04:48:00.812Z,5.30
2018-09-30T04:50:32.488Z,3.25
2018-09-30T04:53:04.192Z,2.05
2018-09-30T04:55:33.864Z,1.05
2018-09-30T04:58:04.423Z,3.92
2018-09-30T05:00:33.967Z,4.70
2018-09-30T05:03:04.668Z,5.22
2018-09-30T05:05:34.357Z,4.62
2018-09-30T05:08:25.324Z,8.45
2018-09-30T05:11:14.888Z,2.47
2018-09-30T05:13:54.891Z,1.98
2018-09-30T05:16:25.102Z,7.42
2018-09-30T05:19:00.106Z,2.62
2018-09-30T05:21:29.896Z,2.02
2018-09-30T05:23:59.695Z,2.90
2018-09-30T05:26:29.651Z,8.65
2018-09-30T05:28:59.256Z,1.98
2018-09-30T05:31:28.828Z,2.15
2018-09-30T05:33:58.308Z,2.30
2018-09-30T05:36:27.816Z,1.87
2018-09-30T05:38:57.308Z,9.40
2018-09-30T05:41:29.092Z,4.25
2018-09-30T05:43:59.911Z,4.62
2018-09-30T05:46:30.548Z,4.28
2018-09-30T05:49:01.332Z,3.50
2018-09-30T05:51:31.096Z,5.10
2018-09-30T05:54:01.912Z,2.65
2018-09-30T05:56:31.548Z,3.62
2018-09-30T05:59:02.060Z,2.30
2018-09-30T06:01:32.792Z,3.22
2018-09-30T06:04:04.662Z,5.05
2018-09-30T06:06:38.397Z,4.22
2018-09-30T06:09:12.945Z,4.35
2018-09-30T06:11:47.892Z,3.80
2018-09-30T06:14:17.945Z,11.78
2018-09-30T06:16:51.256Z,3.05
2018-09-30T06:19:21.160Z,1.77
2018-09-30T06:21:51.980Z,5.47
2018-09-30T06:24:21.836Z,2.42
2018-09-30T06:26:51.707Z,5.20
2018-09-30T06:29:24.672Z,3.90
2018-09-30T06:31:57.639Z,2.03
2018-09-30T06:34:28.415Z,2.30
2018-09-30T06:37:00.276Z,4.90
2018-09-30T06:39:29.863Z,3.97
2018-09-30T06:41:59.448Z,10.60
2018-09-30T06:44:29.447Z,5.03
2018-09-30T06:46:59.004Z,3.30
2018-09-30T06:49:29.519Z,2.00
2018-09-30T06:52:00.088Z,3.50
2018-09-30T06:54:29.655Z,5.60
2018-09-30T06:57:00.048Z,3.90
2018-09-30T06:59:31.711Z,3.57
2018-09-30T07:02:01.304Z,5.13
2018-09-30T07:04:33.008Z,3.17
2018-09-30T07:07:02.807Z,5.27
2018-09-30T07:09:34.671Z,4.90
2018-09-30T07:12:08.992Z,5.13
2018-09-30T07:14:39.839Z,3.77
2018-09-30T07:17:10.672Z,1.67
2018-09-30T07:19:40.452Z,5.77
2018-09-30T07:22:12.052Z,1.67
2018-09-30T07:24:42.747Z,2.50
2018-09-30T07:27:13.584Z,2.80
2018-09-30T07:29:43.412Z,1.60
2018-09-30T07:32:13.427Z,1.47
2018-09-30T07:34:43.244Z,1.27
2018-09-30T07:37:13.068Z,3.07
2018-09-30T07:39:44.896Z,3.07
2018-09-30T07:42:20.268Z,7.70
2018-09-30T07:44:52.092Z,3.77
2018-09-30T07:47:26.576Z,1.00
2018-09-30T07:49:56.568Z,5.63
2018-09-30T07:52:28.461Z,1.47
2018-09-30T07:55:00.292Z,2.70
2018-09-30T07:57:29.873Z,4.23
2018-09-30T08:00:00.608Z,1.07
2018-09-30T08:02:30.236Z,1.83
2018-09-30T08:05:00.008Z,1.77
2018-09-30T08:07:29.619Z,1.70
2018-09-30T08:10:00.340Z,1.63
2018-09-30T08:12:30.196Z,2.43
2018-09-30T08:15:00.787Z,2.17
2018-09-30T08:17:30.584Z,1.63
2018-09-30T08:20:00.451Z,2.70
2018-09-30T08:22:36.084Z,2.57
2018-09-30T08:25:06.116Z,1.90
2018-09-30T08:27:36.928Z,4.53
2018-09-30T08:30:06.532Z,3.20
2018-09-30T08:32:37.259Z,3.90
2018-09-30T08:35:06.811Z,1.70
2018-09-30T08:37:45.736Z,2.60
2018-09-30T08:40:29.307Z,5.10
2018-09-30T08:43:05.529Z,1.83
2018-09-30T08:45:36.115Z,2.87
2018-09-30T08:48:06.575Z,7.20
2018-09-30T08:50:36.508Z,7.33
2018-09-30T08:53:12.444Z,1.83
2018-09-30T08:55:43.308Z,1.93
2018-09-30T08:58:13.128Z,4.00
2018-09-30T09:00:47.276Z,10.70
2018-09-30T09:03:17.105Z,3.17
2018-09-30T09:05:48.744Z,2.13
2018-09-30T09:08:26.160Z,3.00
2018-09-30T09:10:55.736Z,5.60
2018-09-30T09:13:25.424Z,3.33
2018-09-30T09:15:56.301Z,11.67
2018-09-30T09:18:27.120Z,1.60
2018-09-30T09:20:56.936Z,7.23
2018-09-30T09:26:04.748Z,3.83
2018-09-30T09:28:35.464Z,2.23
2018-09-30T09:31:06.364Z,4.67
2018-09-30T09:33:36.225Z,2.57
2018-09-30T09:36:06.117Z,2.83
2018-09-30T09:38:35.973Z,1.97
2018-09-30T09:41:10.305Z,3.63
2018-09-30T09:43:40.064Z,16.03
2018-09-30T09:46:11.936Z,4.30
2018-09-30T09:48:41.887Z,8.20
2018-09-30T09:51:12.796Z,6.20
2018-09-30T09:53:42.632Z,3.43
2018-09-30T09:56:14.464Z,4.13
2018-09-30T09:58:44.289Z,1.50
2018-09-30T10:01:18.076Z,1.50
2018-09-30T10:03:49.832Z,2.30
2018-09-30T10:06:19.459Z,2.47
2018-09-30T10:08:50.975Z,6.93
2018-09-30T10:11:20.521Z,1.97
2018-09-30T10:13:50.196Z,6.30
2018-09-30T10:16:21.041Z,3.07
2018-09-30T10:18:52.912Z,1.67
2018-09-30T10:21:24.768Z,5.83
2018-09-30T10:23:54.683Z,2.90
2018-09-30T10:26:26.408Z,6.37
2018-09-30T10:28:58.295Z,5.43
2018-09-30T10:31:28.349Z,2.80
2018-09-30T10:33:59.856Z,2.03
2018-09-30T10:36:32.788Z,1.67
2018-09-30T10:39:02.705Z,2.40
2018-09-30T10:41:33.453Z,2.40
2018-09-30T10:44:03.324Z,7.60
2018-09-30T10:46:34.136Z,3.33
2018-09-30T10:49:04.948Z,3.30
2018-09-30T10:51:35.632Z,3.30
2018-09-30T10:54:05.451Z,3.67
2018-09-30T10:56:38.286Z,4.43
2018-09-30T10:59:09.045Z,2.17
2018-09-30T11:04:14.196Z,1.50
2018-09-30T11:06:44.001Z,2.20
2018-09-30T11:09:13.840Z,6.50
2018-09-30T11:11:44.631Z,2.53
2018-09-30T11:14:15.274Z,6.73
2018-09-30T11:16:46.048Z,3.33
2018-09-30T11:19:16.847Z,2.40
2018-09-30T11:21:55.163Z,3.00
2018-09-30T11:24:27.031Z,2.30
2018-09-30T11:26:56.819Z,2.50
2018-09-30T11:29:26.640Z,2.40
2018-09-30T11:31:57.594Z,2.70
2018-09-30T11:34:27.115Z,1.73
2018-09-30T11:36:57.619Z,4.83
2018-09-30T11:39:27.187Z,2.43
2018-09-30T11:41:56.723Z,3.37
2018-09-30T11:44:26.264Z,1.57
2018-09-30T11:46:55.755Z,4.53
2018-09-30T11:49:25.240Z,2.67
2018-09-30T11:51:55.016Z,14.17
2018-09-30T11:54:24.676Z,3.73
2018-09-30T11:56:54.188Z,7.47
2018-09-30T11:59:24.939Z,5.50
2018-09-30T12:01:55.788Z,2.00
2018-09-30T12:04:25.679Z,4.33
2018-09-30T12:06:55.475Z,4.40
2018-09-30T12:09:26.304Z,3.47
2018-09-30T12:11:58.060Z,3.50
2018-09-30T12:14:28.687Z,3.20
2018-09-30T12:16:58.419Z,4.97
2018-09-30T12:19:29.047Z,3.70
2018-09-30T12:22:00.828Z,2.20
2018-09-30T12:24:31.627Z,4.53
2018-09-30T12:27:01.468Z,3.60
2018-09-30T12:29:33.335Z,6.40
2018-09-30T12:32:05.159Z,3.00
2018-09-30T12:34:34.987Z,5.60
2018-09-30T12:37:05.803Z,5.53
2018-09-30T12:39:37.991Z,7.30
2018-09-30T12:42:07.848Z,2.70
2018-09-30T12:44:38.713Z,3.60
2018-09-30T12:47:09.595Z,5.23
2018-09-30T12:49:40.283Z,2.50
2018-09-30T12:52:13.267Z,2.60
2018-09-30T12:54:43.184Z,4.00
2018-09-30T12:57:13.831Z,2.83
2018-09-30T12:59:44.547Z,2.13
2018-09-30T13:02:14.403Z,3.53
2018-09-30T13:04:44.003Z,5.10
2018-09-30T13:07:13.495Z,2.37
2018-09-30T13:09:43.218Z,3.33
2018-09-30T13:12:14.315Z,2.30
2018-09-30T13:14:44.435Z,3.20
2018-09-30T13:17:14.198Z,4.27
2018-09-30T13:19:44.063Z,11.47
2018-09-30T13:22:13.899Z,21.00
2018-09-30T13:24:47.504Z,2.23
2018-09-30T13:27:17.179Z,3.47
2018-09-30T13:29:46.671Z,4.47
2018-09-30T13:32:16.183Z,3.63
2018-09-30T13:34:53.158Z,5.30
2018-09-30T13:37:22.987Z,2.87
2018-09-30T13:39:52.846Z,3.50
2018-09-30T13:42:23.422Z,5.20
2018-09-30T13:44:53.127Z,2.40
2018-09-30T13:47:24.011Z,3.70
2018-09-30T13:49:53.783Z,3.00
2018-09-30T13:52:25.738Z,3.77
2018-09-30T13:54:55.735Z,5.97
2018-09-30T13:57:25.571Z,6.23
2018-09-30T14:00:08.867Z,7.83
2018-09-30T14:02:39.719Z,10.43
2018-09-30T14:05:25.775Z,3.07
2018-09-30T14:07:55.643Z,3.70
2018-09-30T14:10:25.571Z,4.07
2018-09-30T14:12:57.091Z,3.80
2018-09-30T14:15:26.671Z,4.00
2018-09-30T14:17:59.659Z,2.40
2018-09-30T14:20:32.599Z,2.60
2018-09-30T14:23:09.074Z,4.73
2018-09-30T14:25:39.786Z,5.70
2018-09-30T14:28:09.603Z,2.80
2018-09-30T14:30:39.423Z,4.23
2018-09-30T14:33:12.387Z,4.80
2018-09-30T14:35:44.151Z,3.10
2018-09-30T14:38:14.775Z,3.20
2018-09-30T14:40:44.278Z,6.30
2018-09-30T14:43:18.604Z,6.20
2018-09-30T14:45:49.118Z,4.63
2018-09-30T14:48:20.599Z,3.60
2018-09-30T14:50:50.305Z,11.10
2018-09-30T14:53:21.151Z,6.90
2018-09-30T14:55:50.883Z,3.23
2018-09-30T14:58:23.919Z,8.87
2018-09-30T15:00:53.848Z,5.37
2018-09-30T15:03:24.699Z,3.87
2018-09-30T15:05:54.551Z,6.60
2018-09-30T15:08:25.316Z,4.63
2018-09-30T15:10:55.167Z,5.17
2018-09-30T15:13:24.952Z,7.17
2018-09-30T15:15:58.342Z,6.23
2018-09-30T15:18:33.175Z,5.47
2018-09-30T15:21:03.818Z,8.43
2018-09-30T15:23:34.530Z,5.17
2018-09-30T15:26:08.667Z,15.63
2018-09-30T15:28:39.179Z,3.63
2018-09-30T15:31:08.883Z,4.20
2018-09-30T15:33:41.970Z,3.33
2018-09-30T15:36:11.687Z,4.80
2018-09-30T15:38:42.319Z,4.23
2018-09-30T15:41:11.803Z,8.00
2018-09-30T15:43:41.335Z,5.13
2018-09-30T15:46:17.719Z,7.13
2018-09-30T15:48:47.484Z,5.07
2018-09-30T15:51:19.252Z,5.73
2018-09-30T15:53:49.048Z,8.23
2018-09-30T15:56:23.272Z,6.93
2018-09-30T15:58:54.827Z,4.80
2018-09-30T16:01:24.328Z,6.30
2018-09-30T16:03:55.204Z,8.00
2018-09-30T16:06:25.096Z,11.70
2018-09-30T16:08:55.827Z,5.23
2018-09-30T16:11:25.423Z,5.10
2018-09-30T16:13:55.943Z,5.53
2018-09-30T16:16:25.891Z,5.30
2018-09-30T16:18:56.768Z,9.00
2018-09-30T16:21:26.438Z,8.73
2018-09-30T16:23:57.152Z,4.80
2018-09-30T16:26:26.792Z,4.87
2018-09-30T16:28:59.528Z,3.90
2018-09-30T16:31:29.191Z,8.70
2018-09-30T16:33:58.952Z,13.23
2018-09-30T16:36:30.511Z,6.00
2018-09-30T16:39:01.035Z,8.17
2018-09-30T16:41:30.632Z,4.70
2018-09-30T16:44:00.043Z,7.73
2018-09-30T16:46:29.539Z,11.07
2018-09-30T16:49:01.063Z,11.77
2018-09-30T16:51:34.015Z,7.17
2018-09-30T16:54:04.830Z,5.40
2018-09-30T16:56:34.507Z,5.70
2018-09-30T16:59:04.711Z,6.10
2018-09-30T17:01:35.515Z,6.13
2018-09-30T17:04:08.567Z,6.33
2018-09-30T17:06:38.337Z,4.83
2018-09-30T17:09:08.355Z,4.47
2018-09-30T17:11:40.091Z,6.10
2018-09-30T17:14:10.765Z,5.20
2018-09-30T17:16:40.426Z,8.10
2018-09-30T17:19:12.179Z,8.87
2018-09-30T17:21:43.326Z,7.00
2018-09-30T17:24:14.311Z,12.70
2018-09-30T17:26:45.362Z,9.20
2018-09-30T17:29:15.047Z,7.07
2018-09-30T17:31:44.807Z,10.00
2018-09-30T17:34:14.448Z,14.27
2018-09-30T17:36:45.443Z,13.00
2018-09-30T17:39:15.671Z,14.50
2018-09-30T17:41:45.759Z,26.60
2018-09-30T17:44:21.198Z,18.77
2018-09-30T17:46:54.487Z,16.60
2018-09-30T17:49:25.447Z,12.03
2018-09-30T17:57:25.312Z,16.13
2018-09-30T18:00:07.731Z,11.43
2018-09-30T18:02:47.812Z,9.83
2018-09-30T18:05:24.095Z,15.53
2018-09-30T18:07:56.427Z,11.60
2018-09-30T18:10:31.887Z,8.20
2018-09-30T18:13:07.299Z,10.90
2018-09-30T18:15:37.591Z,12.03
2018-09-30T18:18:16.335Z,16.30
2018-09-30T18:20:51.435Z,14.27
2018-09-30T18:23:28.305Z,12.17
2018-09-30T18:26:00.139Z,12.20
2018-09-30T18:28:31.675Z,14.50
2018-09-30T18:31:02.895Z,22.13
2018-09-30T18:36:14.735Z,12.73
2018-09-30T18:38:53.135Z,13.10
2018-09-30T18:41:27.415Z,10.83
2018-09-30T18:44:13.783Z,8.00
2018-09-30T18:49:39.707Z,7.27
2018-09-30T18:52:15.644Z,15.73
2018-09-30T18:54:58.555Z,10.30
2018-09-30T18:57:44.731Z,7.43
2018-09-30T19:00:24.579Z,13.63
2018-09-30T19:02:55.591Z,5.87
2018-09-30T19:05:30.259Z,6.80
2018-09-30T19:08:01.611Z,5.80
2018-09-30T19:10:36.423Z,11.53
2018-09-30T19:13:11.715Z,8.57
2018-09-30T19:15:43.108Z,7.50
2018-09-30T19:18:15.074Z,6.33
2018-09-30T19:20:45.279Z,8.17
2018-09-30T19:23:15.879Z,6.17
2018-09-30T19:25:46.951Z,5.60
2018-09-30T19:28:25.696Z,9.90
2018-09-30T19:30:57.651Z,12.17
2018-09-30T19:33:27.287Z,9.70
2018-09-30T19:35:58.915Z,10.27
2018-09-30T19:38:28.451Z,14.50
2018-09-30T19:40:59.047Z,16.87
2018-09-30T19:43:29.659Z,10.47
2018-09-30T19:46:00.795Z,7.63
2018-09-30T19:48:31.629Z,10.77
2018-09-30T19:51:01.347Z,8.90
2018-09-30T19:53:32.243Z,10.97
2018-09-30T19:56:06.596Z,14.63
2018-09-30T19:58:37.483Z,12.30
2018-09-30T20:01:08.550Z,11.13
2018-09-30T20:03:41.851Z,14.73
2018-09-30T20:06:11.379Z,10.63
2018-09-30T20:08:42.948Z,10.63
2018-09-30T20:11:13.579Z,15.93
2018-09-30T20:13:43.371Z,11.87
2018-09-30T20:16:14.192Z,12.67
2018-09-30T20:18:43.780Z,9.70
2018-09-30T20:21:17.800Z,16.27
2018-09-30T20:23:50.609Z,16.20
2018-09-30T20:29:19.774Z,13.67
2018-09-30T20:31:55.295Z,24.23
2018-09-30T20:34:26.005Z,14.80
2018-09-30T20:36:55.846Z,18.97
2018-09-30T20:39:26.408Z,17.60
2018-09-30T20:42:00.624Z,13.63
2018-09-30T20:44:31.015Z,15.90
2018-09-30T20:47:01.940Z,13.23
2018-09-30T20:49:31.811Z,11.70
2018-09-30T20:52:01.632Z,23.30
2018-09-30T20:54:31.559Z,20.33
2018-09-30T20:57:04.874Z,17.80
2018-09-30T20:59:36.739Z,12.83
2018-09-30T21:02:07.343Z,20.37
2018-09-30T21:04:37.146Z,15.70
2018-09-30T21:07:07.995Z,14.67
2018-09-30T21:09:37.914Z,26.70
2018-09-30T21:12:07.578Z,11.00
2018-09-30T21:14:37.450Z,14.00
2018-09-30T21:17:09.202Z,11.83
2018-09-30T21:19:42.436Z,12.90
2018-09-30T21:22:12.319Z,15.23
2018-09-30T21:24:42.287Z,17.40
2018-09-30T21:27:13.939Z,26.60
2018-09-30T21:29:43.535Z,11.53
2018-09-30T21:32:13.558Z,16.67
2018-09-30T21:34:43.174Z,14.23
2018-09-30T21:37:12.746Z,15.83
2018-09-30T21:39:43.275Z,13.90
2018-09-30T21:42:16.230Z,15.23
2018-09-30T21:44:46.071Z,15.70
2018-09-30T21:47:19.476Z,15.03
2018-09-30T21:49:52.471Z,10.90
2018-09-30T21:52:22.291Z,18.20
2018-09-30T21:54:55.594Z,14.87
2018-09-30T21:57:27.251Z,22.43
2018-09-30T21:59:56.810Z,39.07
2018-09-30T22:02:29.494Z,12.03
2018-09-30T22:05:06.419Z,18.87
2018-09-30T22:07:37.223Z,13.33
2018-09-30T22:10:07.111Z,11.83
2018-09-30T22:12:37.763Z,10.23
2018-09-30T22:15:07.603Z,13.40
2018-09-30T22:17:39.479Z,10.47
2018-09-30T22:20:10.298Z,11.97
2018-09-30T22:22:41.019Z,11.10
2018-09-30T22:25:11.563Z,13.03
2018-09-30T22:27:42.324Z,12.93
2018-09-30T22:30:12.955Z,14.10
2018-09-30T22:32:49.363Z,15.90
2018-09-30T22:35:22.991Z,18.40
2018-09-30T22:37:52.894Z,18.83
2018-09-30T22:40:22.582Z,15.50
2018-09-30T22:42:52.299Z,18.33
2018-09-30T22:45:23.335Z,15.97
2018-09-30T22:47:52.926Z,16.70
2018-09-30T22:50:22.483Z,13.93
2018-09-30T22:52:54.927Z,22.47
2018-09-30T22:55:24.440Z,15.43
2018-09-30T22:57:54.266Z,14.40
2018-09-30T23:00:24.906Z,14.63
2018-09-30T23:02:54.814Z,13.60
2018-09-30T23:05:25.438Z,15.10
2018-09-30T23:07:56.218Z,15.60
2018-09-30T23:10:26.895Z,13.60
2018-09-30T23:12:58.590Z,14.17
2018-09-30T23:15:28.914Z,23.47
2018-09-30T23:17:58.796Z,16.87
2018-09-30T23:20:28.614Z,17.53
2018-09-30T23:25:37.818Z,18.67
2018-09-30T23:28:08.795Z,21.53
2018-09-30T23:30:41.958Z,20.73
2018-09-30T23:33:16.127Z,17.43
2018-09-30T23:35:45.846Z,16.07
2018-09-30T23:38:15.782Z,19.70
2018-09-30T23:40:49.834Z,25.03
2018-09-30T23:43:20.498Z,12.90
2018-09-30T23:45:51.010Z,23.37
2018-09-30T23:48:23.043Z,21.27
2018-09-30T23:50:54.250Z,14.33
2018-09-30T23:53:25.914Z,15.37
2018-09-30T23:55:57.719Z,13.80
2018-09-30T23:58:29.582Z,9.87
